sensor_id;sensor_type;location;lat;lon;timestamp;pressure;altitude;pressure_sealevel;temperature;humidity
78841;BME280;68379;47.190;27.558;2023-05-15T00:01:54;100029.77;;;13.59;49.23
78841;BME280;68379;47.190;27.558;2023-05-15T00:04:25;100026.13;;;13.53;49.74
78841;BME280;68379;47.190;27.558;2023-05-15T00:06:57;100028.54;;;13.48;49.48
78841;BME280;68379;47.190;27.558;2023-05-15T00:09:29;100027.85;;;13.43;49.90
78841;BME280;68379;47.190;27.558;2023-05-15T00:12:00;100027.68;;;13.40;49.86
78841;BME280;68379;47.190;27.558;2023-05-15T00:14:32;100026.95;;;13.37;49.82
78841;BME280;68379;47.190;27.558;2023-05-15T00:17:03;100029.73;;;13.34;50.08
78841;BME280;68379;47.190;27.558;2023-05-15T00:19:35;100033.75;;;13.31;49.97
78841;BME280;68379;47.190;27.558;2023-05-15T00:22:07;100032.67;;;13.28;49.84
78841;BME280;68379;47.190;27.558;2023-05-15T00:24:38;100030.04;;;13.23;50.22
78841;BME280;68379;47.190;27.558;2023-05-15T00:27:10;100034.35;;;13.18;51.25
78841;BME280;68379;47.190;27.558;2023-05-15T00:29:41;100036.58;;;13.08;52.73
78841;BME280;68379;47.190;27.558;2023-05-15T00:32:13;100035.20;;;12.96;53.37
78841;BME280;68379;47.190;27.558;2023-05-15T00:34:45;100031.66;;;12.80;54.20
78841;BME280;68379;47.190;27.558;2023-05-15T00:37:16;100029.65;;;12.66;55.18
78841;BME280;68379;47.190;27.558;2023-05-15T00:39:47;100030.79;;;12.52;55.95
78841;BME280;68379;47.190;27.558;2023-05-15T00:42:19;100027.71;;;12.41;56.08
78841;BME280;68379;47.190;27.558;2023-05-15T00:44:52;100023.87;;;12.32;56.68
78841;BME280;68379;47.190;27.558;2023-05-15T00:47:24;100026.54;;;12.24;57.33
78841;BME280;68379;47.190;27.558;2023-05-15T00:49:57;100029.52;;;12.16;57.16
78841;BME280;68379;47.190;27.558;2023-05-15T00:52:30;100026.38;;;12.11;57.33
78841;BME280;68379;47.190;27.558;2023-05-15T00:55:02;100031.04;;;12.05;57.38
78841;BME280;68379;47.190;27.558;2023-05-15T00:57:34;100027.58;;;11.99;57.89
78841;BME280;68379;47.190;27.558;2023-05-15T01:00:08;100025.50;;;11.94;58.10
78841;BME280;68379;47.190;27.558;2023-05-15T01:02:41;100022.30;;;11.90;57.85
78841;BME280;68379;47.190;27.558;2023-05-15T01:05:12;100021.55;;;11.87;57.89
78841;BME280;68379;47.190;27.558;2023-05-15T01:07:51;100023.95;;;11.84;58.18
78841;BME280;68379;47.190;27.558;2023-05-15T01:10:23;100023.92;;;11.80;58.18
78841;BME280;68379;47.190;27.558;2023-05-15T01:12:56;100024.60;;;11.76;57.97
78841;BME280;68379;47.190;27.558;2023-05-15T01:15:27;100022.96;;;11.73;57.78
78841;BME280;68379;47.190;27.558;2023-05-15T01:17:59;100024.48;;;11.71;57.90
78841;BME280;68379;47.190;27.558;2023-05-15T01:20:38;100028.80;;;11.69;57.84
78841;BME280;68379;47.190;27.558;2023-05-15T01:23:26;100025.87;;;11.67;57.09
78841;BME280;68379;47.190;27.558;2023-05-15T01:26:26;100024.63;;;11.67;57.64
78841;BME280;68379;47.190;27.558;2023-05-15T01:29:06;100024.83;;;11.67;56.77
78841;BME280;68379;47.190;27.558;2023-05-15T01:31:43;100022.52;;;11.67;57.54
78841;BME280;68379;47.190;27.558;2023-05-15T01:34:19;100022.98;;;11.69;57.95
78841;BME280;68379;47.190;27.558;2023-05-15T01:36:58;100020.52;;;11.68;57.55
78841;BME280;68379;47.190;27.558;2023-05-15T01:39:34;100019.00;;;11.67;58.46
78841;BME280;68379;47.190;27.558;2023-05-15T01:42:08;100019.90;;;11.62;59.02
78841;BME280;68379;47.190;27.558;2023-05-15T01:44:48;100012.89;;;11.55;58.85
78841;BME280;68379;47.190;27.558;2023-05-15T01:47:30;100012.58;;;11.50;59.05
78841;BME280;68379;47.190;27.558;2023-05-15T01:50:05;100013.14;;;11.45;58.90
78841;BME280;68379;47.190;27.558;2023-05-15T01:52:40;100011.50;;;11.42;59.18
78841;BME280;68379;47.190;27.558;2023-05-15T01:55:14;100008.45;;;11.39;58.85
78841;BME280;68379;47.190;27.558;2023-05-15T01:57:47;100008.19;;;11.37;57.91
78841;BME280;68379;47.190;27.558;2023-05-15T02:00:21;100008.17;;;11.37;57.72
78841;BME280;68379;47.190;27.558;2023-05-15T02:02:53;100006.08;;;11.36;58.15
78841;BME280;68379;47.190;27.558;2023-05-15T02:05:26;100001.45;;;11.37;58.41
78841;BME280;68379;47.190;27.558;2023-05-15T02:07:59;99998.10;;;11.36;58.38
78841;BME280;68379;47.190;27.558;2023-05-15T02:10:33;99993.16;;;11.36;58.23
78841;BME280;68379;47.190;27.558;2023-05-15T02:13:07;99986.32;;;11.35;58.49
78841;BME280;68379;47.190;27.558;2023-05-15T03:00:39;99965.32;;;11.20;59.71
78841;BME280;68379;47.190;27.558;2023-05-15T03:03:08;99960.89;;;11.25;58.76
78841;BME280;68379;47.190;27.558;2023-05-15T03:05:37;99962.87;;;11.37;57.84
78841;BME280;68379;47.190;27.558;2023-05-15T03:08:06;99966.30;;;11.49;57.21
78841;BME280;68379;47.190;27.558;2023-05-15T03:10:35;99974.52;;;11.64;56.26
78841;BME280;68379;47.190;27.558;2023-05-15T03:13:05;99973.81;;;11.76;55.79
78841;BME280;68379;47.190;27.558;2023-05-15T03:15:34;99976.10;;;11.89;54.86
78841;BME280;68379;47.190;27.558;2023-05-15T03:18:03;99983.11;;;12.04;53.49
78841;BME280;68379;47.190;27.558;2023-05-15T03:20:32;99979.95;;;12.20;52.40
78841;BME280;68379;47.190;27.558;2023-05-15T03:23:00;99979.84;;;12.34;51.65
78841;BME280;68379;47.190;27.558;2023-05-15T03:25:29;99981.23;;;12.47;51.27
78841;BME280;68379;47.190;27.558;2023-05-15T03:27:59;99981.55;;;12.59;50.46
78841;BME280;68379;47.190;27.558;2023-05-15T03:30:28;99987.30;;;12.69;50.17
78841;BME280;68379;47.190;27.558;2023-05-15T03:32:56;99989.05;;;12.77;49.92
78841;BME280;68379;47.190;27.558;2023-05-15T03:35:25;99989.16;;;12.87;49.57
78841;BME280;68379;47.190;27.558;2023-05-15T03:37:54;99988.13;;;12.94;49.96
78841;BME280;68379;47.190;27.558;2023-05-15T03:40:23;99988.02;;;13.00;49.25
78841;BME280;68379;47.190;27.558;2023-05-15T03:42:52;99983.45;;;13.06;49.30
78841;BME280;68379;47.190;27.558;2023-05-15T03:45:22;99980.50;;;13.13;48.81
78841;BME280;68379;47.190;27.558;2023-05-15T03:47:51;99980.23;;;13.18;48.74
78841;BME280;68379;47.190;27.558;2023-05-15T03:50:20;99980.34;;;13.23;48.54
78841;BME280;68379;47.190;27.558;2023-05-15T03:52:49;99982.90;;;13.30;48.65
78841;BME280;68379;47.190;27.558;2023-05-15T03:55:18;99981.03;;;13.35;48.34
78841;BME280;68379;47.190;27.558;2023-05-15T03:57:47;99974.23;;;13.40;48.49
78841;BME280;68379;47.190;27.558;2023-05-15T04:00:18;99969.40;;;13.45;48.19
78841;BME280;68379;47.190;27.558;2023-05-15T04:02:47;99962.43;;;13.49;48.12
78841;BME280;68379;47.190;27.558;2023-05-15T04:05:17;99965.59;;;13.53;47.37
78841;BME280;68379;47.190;27.558;2023-05-15T04:07:46;99966.73;;;13.56;47.13
78841;BME280;68379;47.190;27.558;2023-05-15T04:10:16;99966.55;;;13.59;46.91
78841;BME280;68379;47.190;27.558;2023-05-15T04:12:45;99975.59;;;13.66;46.77
78841;BME280;68379;47.190;27.558;2023-05-15T04:15:16;99977.27;;;13.72;46.12
78841;BME280;68379;47.190;27.558;2023-05-15T04:17:47;99979.70;;;13.77;45.76
78841;BME280;68379;47.190;27.558;2023-05-15T04:20:18;99978.89;;;13.82;45.77
78841;BME280;68379;47.190;27.558;2023-05-15T04:22:48;99978.69;;;13.86;45.72
78841;BME280;68379;47.190;27.558;2023-05-15T04:25:18;99976.91;;;13.86;45.59
78841;BME280;68379;47.190;27.558;2023-05-15T04:27:48;99974.64;;;13.85;45.32
78841;BME280;68379;47.190;27.558;2023-05-15T04:30:17;99973.67;;;13.83;45.23
78841;BME280;68379;47.190;27.558;2023-05-15T04:32:47;99967.34;;;13.83;45.02
78841;BME280;68379;47.190;27.558;2023-05-15T04:35:17;99963.28;;;13.82;45.11
78841;BME280;68379;47.190;27.558;2023-05-15T04:37:46;99966.17;;;13.84;45.41
78841;BME280;68379;47.190;27.558;2023-05-15T04:40:16;99964.33;;;13.89;44.89
78841;BME280;68379;47.190;27.558;2023-05-15T04:42:45;99967.39;;;13.96;44.44
78841;BME280;68379;47.190;27.558;2023-05-15T04:45:15;99969.10;;;14.07;44.38
78841;BME280;68379;47.190;27.558;2023-05-15T04:47:45;99967.45;;;14.22;44.39
78841;BME280;68379;47.190;27.558;2023-05-15T04:50:14;99967.86;;;14.38;44.75
78841;BME280;68379;47.190;27.558;2023-05-15T04:52:44;99967.12;;;14.48;44.56
78841;BME280;68379;47.190;27.558;2023-05-15T04:55:13;99962.17;;;14.55;44.81
78841;BME280;68379;47.190;27.558;2023-05-15T04:57:42;99960.63;;;14.57;44.43
78841;BME280;68379;47.190;27.558;2023-05-15T05:00:13;99962.36;;;14.58;43.93
78841;BME280;68379;47.190;27.558;2023-05-15T05:02:43;99964.52;;;14.67;43.98
78841;BME280;68379;47.190;27.558;2023-05-15T05:05:12;99960.12;;;14.80;43.83
78841;BME280;68379;47.190;27.558;2023-05-15T05:07:41;99956.75;;;14.96;43.91
78841;BME280;68379;47.190;27.558;2023-05-15T05:10:13;99955.77;;;15.07;42.80
78841;BME280;68379;47.190;27.558;2023-05-15T05:12:42;99959.49;;;15.13;42.62
78841;BME280;68379;47.190;27.558;2023-05-15T05:15:11;99956.70;;;15.22;42.92
78841;BME280;68379;47.190;27.558;2023-05-15T05:17:41;99952.38;;;15.32;42.77
78841;BME280;68379;47.190;27.558;2023-05-15T05:20:11;99949.96;;;15.40;41.52
78841;BME280;68379;47.190;27.558;2023-05-15T05:22:40;99944.13;;;15.42;41.46
78841;BME280;68379;47.190;27.558;2023-05-15T05:25:10;99942.94;;;15.48;41.41
78841;BME280;68379;47.190;27.558;2023-05-15T05:27:39;99947.54;;;15.54;41.34
78841;BME280;68379;47.190;27.558;2023-05-15T05:30:11;99944.16;;;15.63;40.94
78841;BME280;68379;47.190;27.558;2023-05-15T05:32:40;99946.61;;;15.70;40.75
78841;BME280;68379;47.190;27.558;2023-05-15T05:35:09;99946.25;;;15.80;40.39
78841;BME280;68379;47.190;27.558;2023-05-15T05:37:39;99951.35;;;15.84;40.13
78841;BME280;68379;47.190;27.558;2023-05-15T05:40:10;99953.48;;;15.84;40.28
78841;BME280;68379;47.190;27.558;2023-05-15T05:42:39;99953.23;;;15.88;40.56
78841;BME280;68379;47.190;27.558;2023-05-15T05:45:10;99948.69;;;15.95;40.82
78841;BME280;68379;47.190;27.558;2023-05-15T05:47:39;99948.39;;;16.01;40.70
78841;BME280;68379;47.190;27.558;2023-05-15T05:50:10;99948.79;;;16.11;41.16
78841;BME280;68379;47.190;27.558;2023-05-15T05:52:39;99948.94;;;16.21;40.19
78841;BME280;68379;47.190;27.558;2023-05-15T05:55:09;99948.34;;;16.31;40.13
78841;BME280;68379;47.190;27.558;2023-05-15T05:57:38;99947.88;;;16.41;40.33
78841;BME280;68379;47.190;27.558;2023-05-15T06:00:10;99944.11;;;16.53;40.17
78841;BME280;68379;47.190;27.558;2023-05-15T06:02:39;99947.30;;;16.65;39.36
78841;BME280;68379;47.190;27.558;2023-05-15T06:05:09;99943.32;;;16.74;38.68
78841;BME280;68379;47.190;27.558;2023-05-15T06:07:38;99942.42;;;16.89;38.63
78841;BME280;68379;47.190;27.558;2023-05-15T06:10:09;99942.45;;;17.05;39.76
78841;BME280;68379;47.190;27.558;2023-05-15T06:12:39;99946.83;;;17.15;37.17
78841;BME280;68379;47.190;27.558;2023-05-15T06:15:10;99940.77;;;17.17;36.95
78841;BME280;68379;47.190;27.558;2023-05-15T06:17:39;99939.59;;;17.24;35.85
78841;BME280;68379;47.190;27.558;2023-05-15T06:20:10;99942.67;;;17.26;35.60
78841;BME280;68379;47.190;27.558;2023-05-15T06:22:39;99941.91;;;17.35;35.74
78841;BME280;68379;47.190;27.558;2023-05-15T06:25:09;99935.69;;;17.40;35.34
78841;BME280;68379;47.190;27.558;2023-05-15T06:27:41;99936.70;;;17.52;35.52
78841;BME280;68379;47.190;27.558;2023-05-15T06:30:12;99929.36;;;17.60;34.31
78841;BME280;68379;47.190;27.558;2023-05-15T06:32:42;99935.58;;;17.66;34.19
78841;BME280;68379;47.190;27.558;2023-05-15T06:35:11;99940.38;;;17.74;34.19
78841;BME280;68379;47.190;27.558;2023-05-15T06:37:40;99934.76;;;17.84;33.74
78841;BME280;68379;47.190;27.558;2023-05-15T06:40:11;99929.17;;;17.98;33.77
78841;BME280;68379;47.190;27.558;2023-05-15T06:42:40;99925.11;;;18.10;33.80
78841;BME280;68379;47.190;27.558;2023-05-15T06:45:11;99926.21;;;18.19;33.05
78841;BME280;68379;47.190;27.558;2023-05-15T06:47:40;99923.95;;;18.26;33.06
78841;BME280;68379;47.190;27.558;2023-05-15T06:50:10;99926.95;;;18.30;32.64
78841;BME280;68379;47.190;27.558;2023-05-15T06:52:39;99921.85;;;18.34;32.38
78841;BME280;68379;47.190;27.558;2023-05-15T06:55:09;99910.73;;;18.39;32.08
78841;BME280;68379;47.190;27.558;2023-05-15T06:57:38;99908.89;;;18.45;32.29
78841;BME280;68379;47.190;27.558;2023-05-15T07:00:09;99902.18;;;18.56;32.20
78841;BME280;68379;47.190;27.558;2023-05-15T07:02:39;99900.80;;;18.65;31.58
78841;BME280;68379;47.190;27.558;2023-05-15T07:05:09;99900.85;;;18.70;31.30
78841;BME280;68379;47.190;27.558;2023-05-15T07:07:38;99896.79;;;18.66;31.09
78841;BME280;68379;47.190;27.558;2023-05-15T07:10:09;99889.09;;;18.72;31.31
78841;BME280;68379;47.190;27.558;2023-05-15T07:12:38;99895.25;;;18.81;31.04
78841;BME280;68379;47.190;27.558;2023-05-15T07:15:09;99897.98;;;18.82;30.55
78841;BME280;68379;47.190;27.558;2023-05-15T07:17:39;99896.90;;;18.92;30.52
78841;BME280;68379;47.190;27.558;2023-05-15T07:20:09;99897.33;;;19.01;30.68
78841;BME280;68379;47.190;27.558;2023-05-15T07:22:39;99897.28;;;19.02;30.19
78841;BME280;68379;47.190;27.558;2023-05-15T07:25:09;99898.36;;;18.99;30.43
78841;BME280;68379;47.190;27.558;2023-05-15T07:27:38;99900.59;;;19.00;30.59
78841;BME280;68379;47.190;27.558;2023-05-15T07:30:10;99896.11;;;19.06;30.71
78841;BME280;68379;47.190;27.558;2023-05-15T07:32:39;99897.02;;;19.20;30.76
78841;BME280;68379;47.190;27.558;2023-05-15T07:35:09;99901.22;;;19.36;30.98
78841;BME280;68379;47.190;27.558;2023-05-15T07:37:39;99900.80;;;19.39;30.40
78841;BME280;68379;47.190;27.558;2023-05-15T07:40:10;99897.16;;;19.49;30.83
78841;BME280;68379;47.190;27.558;2023-05-15T07:42:39;99891.19;;;19.62;30.36
78841;BME280;68379;47.190;27.558;2023-05-15T07:45:09;99898.02;;;19.62;30.11
78841;BME280;68379;47.190;27.558;2023-05-15T07:47:40;99890.14;;;19.62;29.97
78841;BME280;68379;47.190;27.558;2023-05-15T07:50:10;99883.35;;;19.71;30.15
78841;BME280;68379;47.190;27.558;2023-05-15T07:52:39;99881.34;;;19.76;30.41
78841;BME280;68379;47.190;27.558;2023-05-15T07:55:10;99878.11;;;19.85;29.96
78841;BME280;68379;47.190;27.558;2023-05-15T07:57:39;99876.20;;;19.96;30.41
78841;BME280;68379;47.190;27.558;2023-05-15T08:00:11;99871.31;;;20.15;30.07
78841;BME280;68379;47.190;27.558;2023-05-15T08:02:40;99864.23;;;20.30;29.95
78841;BME280;68379;47.190;27.558;2023-05-15T08:05:13;99859.94;;;20.39;30.36
78841;BME280;68379;47.190;27.558;2023-05-15T08:07:43;99855.77;;;20.53;30.24
78841;BME280;68379;47.190;27.558;2023-05-15T08:10:12;99857.73;;;20.64;29.74
78841;BME280;68379;47.190;27.558;2023-05-15T08:12:41;99863.77;;;20.70;29.89
78841;BME280;68379;47.190;27.558;2023-05-15T08:15:13;99858.60;;;20.83;30.41
78841;BME280;68379;47.190;27.558;2023-05-15T08:17:43;99843.96;;;20.96;29.89
78841;BME280;68379;47.190;27.558;2023-05-15T08:20:13;99843.95;;;21.01;29.37
78841;BME280;68379;47.190;27.558;2023-05-15T08:22:42;99836.67;;;20.98;29.29
78841;BME280;68379;47.190;27.558;2023-05-15T08:25:11;99837.65;;;20.95;29.17
78841;BME280;68379;47.190;27.558;2023-05-15T08:27:40;99833.96;;;20.91;28.63
78841;BME280;68379;47.190;27.558;2023-05-15T08:30:11;99823.69;;;20.92;28.75
78841;BME280;68379;47.190;27.558;2023-05-15T08:32:41;99825.74;;;20.95;28.63
78841;BME280;68379;47.190;27.558;2023-05-15T08:35:10;99831.11;;;21.02;28.42
78841;BME280;68379;47.190;27.558;2023-05-15T08:37:39;99823.97;;;21.08;28.49
78841;BME280;68379;47.190;27.558;2023-05-15T08:40:10;99824.57;;;21.18;28.68
78841;BME280;68379;47.190;27.558;2023-05-15T08:42:43;99820.35;;;21.19;28.48
78841;BME280;68379;47.190;27.558;2023-05-15T08:45:13;99824.45;;;21.17;28.91
78841;BME280;68379;47.190;27.558;2023-05-15T08:47:43;99824.15;;;21.23;29.09
78841;BME280;68379;47.190;27.558;2023-05-15T08:50:13;99823.27;;;21.29;28.11
78841;BME280;68379;47.190;27.558;2023-05-15T08:52:44;99820.23;;;21.27;28.35
78841;BME280;68379;47.190;27.558;2023-05-15T08:55:15;99820.87;;;21.30;28.21
78841;BME280;68379;47.190;27.558;2023-05-15T08:57:46;99823.52;;;21.22;27.65
78841;BME280;68379;47.190;27.558;2023-05-15T09:00:18;99828.11;;;21.18;27.71
78841;BME280;68379;47.190;27.558;2023-05-15T09:02:49;99823.84;;;21.27;27.55
78841;BME280;68379;47.190;27.558;2023-05-15T09:05:18;99834.16;;;21.34;27.49
78841;BME280;68379;47.190;27.558;2023-05-15T09:07:48;99827.04;;;21.47;27.11
78841;BME280;68379;47.190;27.558;2023-05-15T09:10:17;99820.31;;;21.54;26.62
78841;BME280;68379;47.190;27.558;2023-05-15T09:12:47;99826.95;;;21.67;26.93
78841;BME280;68379;47.190;27.558;2023-05-15T09:15:20;99814.02;;;21.67;26.49
78841;BME280;68379;47.190;27.558;2023-05-15T09:17:53;99818.69;;;21.71;25.91
78841;BME280;68379;47.190;27.558;2023-05-15T09:20:29;99821.42;;;21.77;25.74
78841;BME280;68379;47.190;27.558;2023-05-15T09:22:59;99810.52;;;21.82;25.56
78841;BME280;68379;47.190;27.558;2023-05-15T09:25:37;99815.00;;;21.78;25.76
78841;BME280;68379;47.190;27.558;2023-05-15T09:28:08;99802.95;;;21.78;26.04
78841;BME280;68379;47.190;27.558;2023-05-15T09:30:39;99800.27;;;21.76;26.32
78841;BME280;68379;47.190;27.558;2023-05-15T09:33:09;99794.32;;;21.93;26.06
78841;BME280;68379;47.190;27.558;2023-05-15T09:35:39;99786.28;;;21.96;26.14
78841;BME280;68379;47.190;27.558;2023-05-15T09:38:10;99776.98;;;22.12;26.16
78841;BME280;68379;47.190;27.558;2023-05-15T09:40:40;99784.66;;;22.23;26.10
78841;BME280;68379;47.190;27.558;2023-05-15T09:43:10;99783.48;;;22.48;26.42
78841;BME280;68379;47.190;27.558;2023-05-15T09:45:40;99783.25;;;22.74;26.06
78841;BME280;68379;47.190;27.558;2023-05-15T09:48:10;99795.10;;;22.87;25.80
78841;BME280;68379;47.190;27.558;2023-05-15T09:50:39;99796.55;;;22.93;25.56
78841;BME280;68379;47.190;27.558;2023-05-15T09:53:10;99803.04;;;22.97;25.46
78841;BME280;68379;47.190;27.558;2023-05-15T09:55:41;99810.10;;;23.06;25.10
78841;BME280;68379;47.190;27.558;2023-05-15T09:58:11;99803.40;;;22.97;25.17
78841;BME280;68379;47.190;27.558;2023-05-15T10:00:42;99803.94;;;22.97;25.52
78841;BME280;68379;47.190;27.558;2023-05-15T10:03:12;99799.46;;;22.94;25.18
78841;BME280;68379;47.190;27.558;2023-05-15T10:05:41;99802.63;;;22.95;25.13
78841;BME280;68379;47.190;27.558;2023-05-15T10:08:11;99799.96;;;23.03;24.77
78841;BME280;68379;47.190;27.558;2023-05-15T10:10:42;99782.61;;;23.07;24.74
78841;BME280;68379;47.190;27.558;2023-05-15T10:13:12;99782.91;;;23.04;24.59
78841;BME280;68379;47.190;27.558;2023-05-15T10:15:42;99790.98;;;22.97;24.06
78841;BME280;68379;47.190;27.558;2023-05-15T10:18:12;99794.48;;;23.04;24.48
78841;BME280;68379;47.190;27.558;2023-05-15T10:20:42;99806.10;;;23.24;24.06
78841;BME280;68379;47.190;27.558;2023-05-15T10:23:13;99794.30;;;23.33;23.90
78841;BME280;68379;47.190;27.558;2023-05-15T10:25:52;99786.02;;;23.29;24.58
78841;BME280;68379;47.190;27.558;2023-05-15T10:28:24;99787.80;;;23.43;25.25
78841;BME280;68379;47.190;27.558;2023-05-15T10:30:55;99788.06;;;23.55;25.47
78841;BME280;68379;47.190;27.558;2023-05-15T10:33:29;99790.27;;;23.76;25.45
78841;BME280;68379;47.190;27.558;2023-05-15T10:36:00;99790.98;;;23.99;25.17
78841;BME280;68379;47.190;27.558;2023-05-15T10:38:30;99801.78;;;24.18;24.73
78841;BME280;68379;47.190;27.558;2023-05-15T10:41:00;99805.34;;;24.11;24.54
78841;BME280;68379;47.190;27.558;2023-05-15T10:43:31;99810.54;;;24.33;24.44
78841;BME280;68379;47.190;27.558;2023-05-15T10:46:01;99803.05;;;24.45;24.08
78841;BME280;68379;47.190;27.558;2023-05-15T10:48:32;99803.13;;;24.50;24.05
78841;BME280;68379;47.190;27.558;2023-05-15T10:51:02;99793.19;;;24.63;24.21
78841;BME280;68379;47.190;27.558;2023-05-15T10:53:32;99792.61;;;24.52;24.43
78841;BME280;68379;47.190;27.558;2023-05-15T10:56:03;99794.48;;;24.63;24.71
78841;BME280;68379;47.190;27.558;2023-05-15T10:58:33;99790.97;;;24.78;24.54
78841;BME280;68379;47.190;27.558;2023-05-15T11:01:02;99789.48;;;24.97;24.29
78841;BME280;68379;47.190;27.558;2023-05-15T11:03:37;99783.52;;;24.71;24.62
78841;BME280;68379;47.190;27.558;2023-05-15T11:06:11;99786.66;;;24.52;25.37
78841;BME280;68379;47.190;27.558;2023-05-15T11:08:41;99784.22;;;24.31;25.71
78841;BME280;68379;47.190;27.558;2023-05-15T11:11:56;99783.80;;;24.41;25.88
78841;BME280;68379;47.190;27.558;2023-05-15T11:14:26;99775.77;;;24.64;25.67
78841;BME280;68379;47.190;27.558;2023-05-15T11:17:04;99783.00;;;24.79;25.10
78841;BME280;68379;47.190;27.558;2023-05-15T11:19:54;99790.58;;;24.68;23.61
78841;BME280;68379;47.190;27.558;2023-05-15T11:22:30;99784.94;;;24.50;23.88
78841;BME280;68379;47.190;27.558;2023-05-15T11:25:01;99782.17;;;24.35;23.68
78841;BME280;68379;47.190;27.558;2023-05-15T11:27:39;99778.55;;;24.17;23.35
78841;BME280;68379;47.190;27.558;2023-05-15T11:30:19;99774.35;;;24.06;23.50
78841;BME280;68379;47.190;27.558;2023-05-15T11:32:50;99780.91;;;24.24;24.06
78841;BME280;68379;47.190;27.558;2023-05-15T11:35:22;99779.39;;;24.27;23.81
78841;BME280;68379;47.190;27.558;2023-05-15T11:37:52;99773.67;;;24.32;24.03
78841;BME280;68379;47.190;27.558;2023-05-15T11:40:23;99762.63;;;24.38;24.26
78841;BME280;68379;47.190;27.558;2023-05-15T11:43:01;99757.51;;;24.49;24.15
78841;BME280;68379;47.190;27.558;2023-05-15T11:45:32;99755.55;;;24.55;24.14
78841;BME280;68379;47.190;27.558;2023-05-15T11:48:03;99754.21;;;24.28;23.94
78841;BME280;68379;47.190;27.558;2023-05-15T11:50:34;99756.20;;;24.35;23.95
78841;BME280;68379;47.190;27.558;2023-05-15T11:53:05;99751.45;;;24.32;23.82
78841;BME280;68379;47.190;27.558;2023-05-15T11:55:35;99745.40;;;24.13;23.80
78841;BME280;68379;47.190;27.558;2023-05-15T11:58:09;99740.86;;;23.98;24.13
78841;BME280;68379;47.190;27.558;2023-05-15T12:00:39;99742.39;;;24.16;24.41
78841;BME280;68379;47.190;27.558;2023-05-15T12:03:14;99736.92;;;24.33;24.46
78841;BME280;68379;47.190;27.558;2023-05-15T12:05:44;99743.30;;;24.73;24.48
78841;BME280;68379;47.190;27.558;2023-05-15T12:08:13;99737.25;;;25.06;24.24
78841;BME280;68379;47.190;27.558;2023-05-15T12:10:43;99741.16;;;25.01;24.06
78841;BME280;68379;47.190;27.558;2023-05-15T12:13:13;99725.92;;;25.07;23.55
78841;BME280;68379;47.190;27.558;2023-05-15T12:15:44;99730.16;;;25.21;23.43
78841;BME280;68379;47.190;27.558;2023-05-15T12:18:13;99717.89;;;25.57;23.37
78841;BME280;68379;47.190;27.558;2023-05-15T12:20:42;99715.30;;;25.85;23.28
78841;BME280;68379;47.190;27.558;2023-05-15T12:23:16;99714.60;;;26.04;23.12
78841;BME280;68379;47.190;27.558;2023-05-15T12:25:46;99710.08;;;26.07;23.07
78841;BME280;68379;47.190;27.558;2023-05-15T12:28:16;99696.56;;;26.32;22.98
78841;BME280;68379;47.190;27.558;2023-05-15T12:30:46;99690.84;;;26.67;22.92
78841;BME280;68379;47.190;27.558;2023-05-15T12:33:15;99691.23;;;26.78;21.84
78841;BME280;68379;47.190;27.558;2023-05-15T12:35:54;99695.66;;;26.79;21.79
78841;BME280;68379;47.190;27.558;2023-05-15T12:38:23;99689.31;;;27.01;21.72
78841;BME280;68379;47.190;27.558;2023-05-15T12:40:53;99690.63;;;27.39;21.49
78841;BME280;68379;47.190;27.558;2023-05-15T12:43:24;99684.70;;;27.42;21.25
78841;BME280;68379;47.190;27.558;2023-05-15T12:45:54;99690.02;;;27.33;21.33
78841;BME280;68379;47.190;27.558;2023-05-15T12:48:29;99687.27;;;27.68;21.48
78841;BME280;68379;47.190;27.558;2023-05-15T12:51:05;99689.98;;;27.62;21.31
78841;BME280;68379;47.190;27.558;2023-05-15T12:53:35;99689.52;;;27.54;21.49
78841;BME280;68379;47.190;27.558;2023-05-15T12:56:07;99692.87;;;27.40;21.81
78841;BME280;68379;47.190;27.558;2023-05-15T12:58:36;99696.09;;;27.08;21.94
78841;BME280;68379;47.190;27.558;2023-05-15T13:01:05;99690.81;;;26.67;22.21
78841;BME280;68379;47.190;27.558;2023-05-15T13:03:35;99698.48;;;26.30;22.83
78841;BME280;68379;47.190;27.558;2023-05-15T13:06:05;99690.23;;;25.98;23.17
78841;BME280;68379;47.190;27.558;2023-05-15T13:08:39;99682.52;;;25.77;23.63
78841;BME280;68379;47.190;27.558;2023-05-15T13:11:12;99686.63;;;25.60;24.28
78841;BME280;68379;47.190;27.558;2023-05-15T13:13:45;99686.10;;;25.58;24.50
78841;BME280;68379;47.190;27.558;2023-05-15T13:16:26;99686.27;;;25.55;24.45
78841;BME280;68379;47.190;27.558;2023-05-15T13:18:57;99692.20;;;25.57;24.25
78841;BME280;68379;47.190;27.558;2023-05-15T13:21:26;99681.47;;;25.54;24.32
78841;BME280;68379;47.190;27.558;2023-05-15T13:23:55;99683.27;;;25.79;24.42
78841;BME280;68379;47.190;27.558;2023-05-15T13:26:24;99689.01;;;25.79;24.49
78841;BME280;68379;47.190;27.558;2023-05-15T13:28:53;99680.61;;;25.47;24.58
78841;BME280;68379;47.190;27.558;2023-05-15T13:31:24;99683.13;;;25.42;24.52
78841;BME280;68379;47.190;27.558;2023-05-15T13:33:53;99673.48;;;25.14;24.06
78841;BME280;68379;47.190;27.558;2023-05-15T13:36:23;99681.22;;;25.11;24.13
78841;BME280;68379;47.190;27.558;2023-05-15T13:38:51;99684.58;;;25.19;23.31
78841;BME280;68379;47.190;27.558;2023-05-15T13:41:20;99685.88;;;25.11;21.85
78841;BME280;68379;47.190;27.558;2023-05-15T13:43:50;99694.21;;;24.79;21.99
78841;BME280;68379;47.190;27.558;2023-05-15T13:46:18;99691.89;;;24.59;22.16
78841;BME280;68379;47.190;27.558;2023-05-15T13:48:47;99695.59;;;24.60;22.52
78841;BME280;68379;47.190;27.558;2023-05-15T13:51:16;99694.14;;;24.66;22.72
78841;BME280;68379;47.190;27.558;2023-05-15T13:53:45;99699.14;;;24.68;23.66